BAW2447 KLAX-EGLL
Flight info
| Callsign | BAW2447 |
|---|---|
| Flight time | N/A |
| Altitude | 34000 |
| Route | LADYJ4 CSTRO DCT EHF J5 LKV J3 GEG J517 BZXIV DCT ANTAK Q953 IGVEP DCT DUDNI Q882 CACHO Q856 YMM DCT 59N107W 63N099W 65N093W 67N081W 69N067W/M085F340 69N061W 69N045W 67N031W 65N019W 63N013W/N0492F340 DCT MODGO DCT STN DCT FYNER DCT INKOB Q39 DANDI UL28 PENIL L10 WAL UY53 NUGRA |
| Aircraft | A35K/H-SDE2E3GHIJ3J4J5LM1ORWXY/LB1D1 |
Departure
| Time | 2026-04-20 06:42 |
|---|---|
| Airport | Los Angeles International Airport (KLAX) |
Arrival
| Time | N/A |
|---|---|
| Airport | London Heathrow Airport (EGLL) |
| Time | Latitude | Longitude | Altitude | Speed | Heading |
|---|---|---|---|---|---|
| 2026-04-20 06:22 | 33.94098 | -118.41097 | 132 ft | 0 kts | 83° |
| 2026-04-20 06:33 | 33.94097 | -118.41114 | 124 ft | 3 kts | 83° |
| 2026-04-20 06:33 | 33.94095 | -118.41130 | 131 ft | 3 kts | 83° |
| 2026-04-20 06:33 | 33.94093 | -118.41153 | 131 ft | 3 kts | 102° |
| 2026-04-20 06:34 | 33.94094 | -118.41177 | 131 ft | 3 kts | 66° |
| 2026-04-20 06:34 | 33.94083 | -118.41197 | 126 ft | 3 kts | 31° |
| 2026-04-20 06:34 | 33.94063 | -118.41205 | 131 ft | 0 kts | 353° |
| 2026-04-20 06:36 | 33.94064 | -118.41205 | 131 ft | 2 kts | 353° |
| 2026-04-20 06:36 | 33.94134 | -118.41208 | 128 ft | 18 kts | 358° |
| 2026-04-20 06:36 | 33.94303 | -118.41225 | 125 ft | 27 kts | 354° |
| 2026-04-20 06:36 | 33.94478 | -118.41251 | 129 ft | 15 kts | 351° |
| 2026-04-20 06:37 | 33.94493 | -118.41253 | 129 ft | 6 kts | 351° |
| 2026-04-20 06:37 | 33.94601 | -118.41271 | 126 ft | 18 kts | 353° |
| 2026-04-20 06:37 | 33.94728 | -118.41289 | 127 ft | 18 kts | 1° |
| 2026-04-20 06:37 | 33.94800 | -118.41198 | 124 ft | 16 kts | 73° |
| 2026-04-20 06:38 | 33.94816 | -118.41062 | 128 ft | 21 kts | 83° |
| 2026-04-20 06:38 | 33.94840 | -118.40831 | 131 ft | 33 kts | 83° |
| 2026-04-20 06:38 | 33.94870 | -118.40533 | 129 ft | 37 kts | 82° |
| 2026-04-20 06:38 | 33.94903 | -118.40234 | 127 ft | 35 kts | 83° |
| 2026-04-20 06:39 | 33.94931 | -118.39981 | 130 ft | 6 kts | 74° |
| 2026-04-20 06:39 | 33.94938 | -118.39963 | 129 ft | 7 kts | 65° |
| 2026-04-20 06:39 | 33.95001 | -118.39922 | 127 ft | 12 kts | 4° |
| 2026-04-20 06:39 | 33.95035 | -118.39974 | 126 ft | 8 kts | 274° |
| 2026-04-20 06:40 | 33.95034 | -118.40002 | 126 ft | 0 kts | 263° |
| 2026-04-20 06:41 | 33.95026 | -118.40076 | 127 ft | 31 kts | 263° |
| 2026-04-20 06:41 | 33.94977 | -118.40561 | 123 ft | 85 kts | 264° |
| 2026-04-20 06:41 | 33.94884 | -118.41468 | 129 ft | 133 kts | 263° |
| 2026-04-20 06:41 | 33.94755 | -118.42737 | 236 ft | 163 kts | 263° |
| 2026-04-20 06:42 | 33.94623 | -118.44106 | 619 ft | 170 kts | 264° |
| 2026-04-20 06:42 | 33.94484 | -118.45592 | 931 ft | 180 kts | 263° |
| 2026-04-20 06:42 | 33.94345 | -118.47075 | 1420 ft | 184 kts | 264° |
| 2026-04-20 06:42 | 33.94261 | -118.48702 | 1644 ft | 206 kts | 268° |
| 2026-04-20 06:43 | 33.94220 | -118.50515 | 1909 ft | 228 kts | 268° |
| 2026-04-20 06:43 | 33.94144 | -118.52487 | 2334 ft | 242 kts | 265° |
| 2026-04-20 06:43 | 33.93975 | -118.54535 | 2973 ft | 247 kts | 264° |
| 2026-04-20 06:43 | 33.93797 | -118.56606 | 3643 ft | 251 kts | 264° |
| 2026-04-20 06:44 | 33.93622 | -118.58725 | 4327 ft | 255 kts | 264° |
| 2026-04-20 06:44 | 33.93516 | -118.60870 | 5009 ft | 259 kts | 272° |
| 2026-04-20 06:44 | 33.93949 | -118.62979 | 5661 ft | 262 kts | 298° |
| 2026-04-20 06:44 | 33.95098 | -118.64632 | 6338 ft | 264 kts | 323° |
| 2026-04-20 06:45 | 33.96658 | -118.65871 | 7052 ft | 267 kts | 329° |
| 2026-04-20 06:45 | 33.98255 | -118.66985 | 7649 ft | 269 kts | 333° |
| 2026-04-20 06:45 | 34.00045 | -118.67650 | 7938 ft | 271 kts | 355° |
| 2026-04-20 06:45 | 34.01925 | -118.67663 | 7984 ft | 272 kts | 3° |
| 2026-04-20 06:46 | 34.03816 | -118.67515 | 7986 ft | 273 kts | 4° |
| 2026-04-20 06:46 | 34.05719 | -118.67364 | 7979 ft | 274 kts | 4° |
| 2026-04-20 06:46 | 34.07624 | -118.67187 | 7989 ft | 275 kts | 7° |
| 2026-04-20 06:46 | 34.09515 | -118.66796 | 8217 ft | 277 kts | 11° |
| 2026-04-20 06:47 | 34.11406 | -118.66341 | 8789 ft | 278 kts | 11° |
| 2026-04-20 06:47 | 34.13308 | -118.65885 | 9511 ft | 279 kts | 11° |
| 2026-04-20 06:47 | 34.15222 | -118.65428 | 10189 ft | 282 kts | 11° |
| 2026-04-20 06:47 | 34.17203 | -118.64957 | 10510 ft | 299 kts | 11° |
| 2026-04-20 06:48 | 34.19302 | -118.64459 | 10770 ft | 316 kts | 11° |
| 2026-04-20 06:48 | 34.21517 | -118.63934 | 11040 ft | 332 kts | 11° |
| 2026-04-20 06:48 | 34.23848 | -118.63479 | 11300 ft | 347 kts | 4° |
| 2026-04-20 06:48 | 34.26295 | -118.63643 | 11547 ft | 362 kts | 351° |
| 2026-04-20 06:49 | 34.28832 | -118.64201 | 11830 ft | 374 kts | 349° |
| 2026-04-20 06:49 | 34.31407 | -118.64810 | 12267 ft | 380 kts | 349° |
| 2026-04-20 06:49 | 34.34008 | -118.65418 | 12770 ft | 384 kts | 349° |
| 2026-04-20 06:49 | 34.36649 | -118.66029 | 13296 ft | 388 kts | 349° |
| 2026-04-20 06:50 | 34.39289 | -118.66661 | 13691 ft | 382 kts | 348° |
| 2026-04-20 06:50 | 34.41863 | -118.67182 | 14121 ft | 370 kts | 359° |
| 2026-04-20 06:50 | 34.44369 | -118.66781 | 14529 ft | 358 kts | 22° |
| 2026-04-20 06:50 | 34.46354 | -118.65433 | 14843 ft | 349 kts | 43° |
| 2026-04-20 06:51 | 34.47922 | -118.63137 | 15147 ft | 341 kts | 60° |
| 2026-04-20 06:51 | 34.49129 | -118.60691 | 15383 ft | 334 kts | 61° |
| 2026-04-20 06:51 | 34.50267 | -118.58283 | 15607 ft | 322 kts | 62° |
| 2026-04-20 06:51 | 34.51107 | -118.55830 | 15478 ft | 309 kts | 79° |
| 2026-04-20 06:52 | 34.51374 | -118.53274 | 15165 ft | 304 kts | 88° |
| 2026-04-20 06:52 | 34.51060 | -118.50777 | 14766 ft | 299 kts | 114° |
| 2026-04-20 06:52 | 34.49905 | -118.48715 | 14339 ft | 296 kts | 136° |
| 2026-04-20 06:52 | 34.48363 | -118.47067 | 13934 ft | 295 kts | 141° |
| 2026-04-20 06:53 | 34.46801 | -118.45549 | 13590 ft | 292 kts | 141° |
| 2026-04-20 06:53 | 34.45254 | -118.43962 | 13197 ft | 289 kts | 131° |
| 2026-04-20 06:53 | 34.43998 | -118.42075 | 12807 ft | 286 kts | 130° |
| 2026-04-20 06:53 | 34.42710 | -118.40246 | 12426 ft | 284 kts | 131° |
| 2026-04-20 06:54 | 34.41406 | -118.38457 | 12056 ft | 282 kts | 131° |
| 2026-04-20 06:54 | 34.40109 | -118.36686 | 11745 ft | 277 kts | 131° |
| 2026-04-20 06:54 | 34.38895 | -118.35032 | 11600 ft | 266 kts | 131° |
| 2026-04-20 06:54 | 34.37713 | -118.33419 | 11448 ft | 257 kts | 131° |
| 2026-04-20 06:55 | 34.36542 | -118.31823 | 11299 ft | 247 kts | 131° |
| 2026-04-20 06:55 | 34.35427 | -118.30302 | 11117 ft | 239 kts | 131° |
| 2026-04-20 06:55 | 34.34312 | -118.28782 | 10666 ft | 243 kts | 131° |
| 2026-04-20 06:55 | 34.33204 | -118.27271 | 10196 ft | 248 kts | 131° |
| 2026-04-20 06:56 | 34.32060 | -118.25706 | 9658 ft | 253 kts | 133° |
| 2026-04-20 06:56 | 34.30902 | -118.24082 | 9149 ft | 257 kts | 138° |
| 2026-04-20 06:56 | 34.29492 | -118.22766 | 8684 ft | 255 kts | 150° |
| 2026-04-20 06:56 | 34.27995 | -118.21682 | 8509 ft | 245 kts | 151° |
| 2026-04-20 06:57 | 34.26534 | -118.20645 | 8348 ft | 235 kts | 151° |
| 2026-04-20 06:57 | 34.25112 | -118.19849 | 8183 ft | 223 kts | 170° |
| 2026-04-20 06:57 | 34.23603 | -118.19687 | 8004 ft | 215 kts | 181° |
| 2026-04-20 06:57 | 34.22143 | -118.20003 | 7734 ft | 213 kts | 195° |
| 2026-04-20 06:58 | 34.20712 | -118.20567 | 7429 ft | 213 kts | 197° |
| 2026-04-20 06:58 | 34.19337 | -118.21149 | 7131 ft | 211 kts | 197° |
| 2026-04-20 06:58 | 34.17922 | -118.21761 | 6808 ft | 210 kts | 198° |
| 2026-04-20 06:58 | 34.16547 | -118.22358 | 6496 ft | 210 kts | 197° |
| 2026-04-20 06:59 | 34.15172 | -118.22961 | 6166 ft | 210 kts | 197° |
| 2026-04-20 06:59 | 34.13793 | -118.23560 | 5809 ft | 210 kts | 197° |
| 2026-04-20 06:59 | 34.12420 | -118.24156 | 5458 ft | 210 kts | 198° |
| 2026-04-20 06:59 | 34.11037 | -118.24752 | 5125 ft | 211 kts | 197° |
| 2026-04-20 07:00 | 34.09654 | -118.25349 | 4818 ft | 211 kts | 197° |
| 2026-04-20 07:00 | 34.08292 | -118.25941 | 4493 ft | 210 kts | 197° |
| 2026-04-20 07:00 | 34.06926 | -118.26541 | 4195 ft | 209 kts | 197° |
| 2026-04-20 07:00 | 34.05557 | -118.27133 | 3874 ft | 209 kts | 198° |
| 2026-04-20 07:01 | 34.04164 | -118.27722 | 3551 ft | 208 kts | 198° |
| 2026-04-20 07:01 | 34.02808 | -118.28272 | 3223 ft | 208 kts | 198° |
| 2026-04-20 07:01 | 34.01449 | -118.28801 | 3047 ft | 204 kts | 198° |
| 2026-04-20 07:01 | 34.00089 | -118.29306 | 3014 ft | 204 kts | 198° |
| 2026-04-20 07:02 | 33.98767 | -118.29890 | 2594 ft | 207 kts | 208° |
| 2026-04-20 07:02 | 33.97584 | -118.30901 | 2210 ft | 203 kts | 223° |
| 2026-04-20 07:02 | 33.96782 | -118.32263 | 1531 ft | 200 kts | 243° |
| 2026-04-20 07:02 | 33.96234 | -118.33757 | 1099 ft | 194 kts | 248° |
| 2026-04-20 07:03 | 33.95865 | -118.35250 | 858 ft | 179 kts | 258° |
| 2026-04-20 07:03 | 33.95620 | -118.36655 | 689 ft | 163 kts | 258° |
| 2026-04-20 07:03 | 33.95445 | -118.37940 | 513 ft | 149 kts | 260° |
| 2026-04-20 07:03 | 33.95308 | -118.39150 | 328 ft | 145 kts | 261° |
| 2026-04-20 07:04 | 33.95183 | -118.40364 | 155 ft | 146 kts | 262° |
| 2026-04-20 07:04 | 33.95069 | -118.41505 | 137 ft | 129 kts | 265° |
| 2026-04-20 07:04 | 33.94999 | -118.42259 | 126 ft | 31 kts | 262° |
| 2026-04-20 07:04 | 33.94982 | -118.42376 | 130 ft | 24 kts | 256° |
| 2026-04-20 07:05 | 33.94882 | -118.42617 | 120 ft | 10 kts | 240° |
| 2026-04-20 07:05 | 33.94846 | -118.42675 | 125 ft | 19 kts | 228° |
| 2026-04-20 07:05 | 33.94585 | -118.42772 | 120 ft | 44 kts | 173° |
| 2026-04-20 07:05 | 33.94513 | -118.42761 | 125 ft | 0 kts | 173° |
| 2026-04-20 07:06 | 33.94500 | -118.42762 | 123 ft | 11 kts | 180° |